YMMLYWGT

Guest
Details From YMML - Melbourne Intl
To YWGT - Wangaratta
Flight Number -
Tags Generated
Created
Modified
Stats Distance 102 nm / 189 km
Max Altitude 0 ft / 0 m
Waypoints 2
Social Downloads 1
Likes 0
Share VATSIM

Download

Looking for another format? Having issues loading an existing format? Contact us
Advertisement - Login to hide

Notes

Generated

Route

YMML YWGT

ID Type Via Altitude Latitude Longitude Leg Dist Tot Dist Heading (true) Name
O YMML APT - 0 ft / 0 m -37.66220˚ 144.84819˚ - 0 nm - -
O YWGT APT - 0 ft / 0 m -36.41899˚ 146.30013˚ 102 nm 102 nm 43° / 43° -

Altitude Profile

Advertisement - Login to hide

YMML

Details ICAO YMML (MEL)
Name Melbourne Intl
Region Australia
Timezone Australia/Melbourne (UTC+11.0)
Stats Elevation 433 ft / 132 m (AMSL)
Location -37.665301° 144.836668°
Runways 2
Magnetic Variation 11.504° E

METAR

YMML 181430Z 36010KT CAVOK 26/10 Q1003 FM1500 MOD TURB BLW 5000FT

Decode

TAF

TAF YMML 181111Z 1812/1918 04007KT CAVOK FM181800 01018G30KT CAVOK FM182100 36025G42KT CAVOK FM190400 32016G28KT 9999 -SHRA SCT030 FM190600 25012KT 9999 -SHRA SCT030 FM191200 32008KT CAVOK INTER 1903/1908 32030G48KT 3000 TSRA BKN010 SCT080CB INTER 1908/1910 5000 SHRA BKN012

Decode

Departure Runways

ID Width Length Bearing (true) Bearing (mag) Surface Threshold Offset Overrun Length
09 148 ft / 45 m 7,494 ft / 2,284 m 94.01° 82.51° Asphalt 0 ft / 0 m 0 ft / 0 m
16 148 ft / 45 m 12,008 ft / 3,660 m 171.02° 159.52° Asphalt 98 ft / 30 m 0 ft / 0 m
27 148 ft / 45 m 7,494 ft / 2,284 m 274.00° 262.50° Asphalt 0 ft / 0 m 0 ft / 0 m
34 148 ft / 45 m 12,008 ft / 3,660 m 351.01° 339.51° Asphalt 98 ft / 30 m 0 ft / 0 m

YWGT

Details ICAO YWGT
Name Wangaratta
Region Australia
Timezone Australia/Melbourne (UTC+11.0)
Stats Elevation 504 ft / 154 m (AMSL)
Location -36.417393° 146.305505°
Runways 2
Magnetic Variation 11.680° E

METAR

YWGT 181400Z AUTO 21003KT 9999 // NCD 21/16 Q1006

Decode

TAF

Not found

Destination Runways

ID Width Length Bearing (true) Bearing (mag) Surface Threshold Offset Overrun Length
18 98 ft / 30 m 5,387 ft / 1,642 m 188.10° 176.42° Asphalt 0 ft / 0 m 0 ft / 0 m
27 164 ft / 50 m 2,008 ft / 612 m 277.80° 266.12° Grass 0 ft / 0 m 0 ft / 0 m
36 98 ft / 30 m 5,387 ft / 1,642 m 8.11° 356.43° Asphalt 0 ft / 0 m 0 ft / 0 m
9 164 ft / 50 m 2,008 ft / 612 m 97.80° 86.12° Grass 0 ft / 0 m 0 ft / 0 m

Popular Alternatives